Time;durP1;ratioP1;P1;durP2;ratioP2;P2;SDS_P1;SDS_P2;PMS_P1;PMS_P2;Temp;Humidity;BMP_temperature;BMP_pressure;BME280_temperature;BME280_humidity;BME280_pressure;Samples;Min_cycle;Max_cycle;Signal;HPM_P1;HPM_P2
2022/03/06 00:01:04;;;;;;;26.92;20.92;;;;;;;11.68;35.95;103283.75;5014079;28;20445;-81
2022/03/06 00:03:30;;;;;;;32.08;21.95;;;;;;;11.63;36.49;103280.94;5012811;28;20109;-75
2022/03/06 00:05:56;;;;;;;34.33;24.25;;;;;;;11.58;36.09;103278.19;5014081;28;20022;-74
2022/03/06 00:08:22;;;;;;;29.33;22.05;;;;;;;11.57;36.19;103281.19;5014017;28;20105;-75
2022/03/06 00:10:48;;;;;;;34.72;22.05;;;;;;;11.55;36.16;103272.38;5012421;28;20037;-74
2022/03/06 00:13:14;;;;;;;28.00;22.13;;;;;;;11.53;36.37;103274.56;5013608;28;20028;-74
2022/03/06 00:15:41;;;;;;;42.55;23.83;;;;;;;11.57;36.24;103271.06;5012083;28;20056;-76
2022/03/06 00:18:07;;;;;;;33.92;21.65;;;;;;;11.54;36.41;103282.50;5012583;28;20080;-75
2022/03/06 00:20:33;;;;;;;29.27;21.00;;;;;;;11.53;36.47;103274.56;5013812;28;20022;-75
2022/03/06 00:22:59;;;;;;;32.67;21.73;;;;;;;11.46;36.53;103277.50;5013703;28;20519;-74
2022/03/06 00:25:25;;;;;;;30.65;19.45;;;;;;;11.42;36.69;103279.09;5013710;28;20444;-75
2022/03/06 00:27:51;;;;;;;25.55;18.65;;;;;;;11.45;36.37;103273.09;5013706;28;20030;-74
2022/03/06 00:30:16;;;;;;;26.83;18.85;;;;;;;11.53;36.37;103275.38;5013286;28;20129;-76
2022/03/06 00:32:42;;;;;;;28.80;19.70;;;;;;;11.54;36.39;103276.19;5013687;28;20108;-74
2022/03/06 00:35:09;;;;;;;26.65;19.65;;;;;;;11.49;36.41;103267.94;5013512;28;20462;-74
2022/03/06 00:37:34;;;;;;;24.50;19.08;;;;;;;11.48;36.58;103275.31;5013457;28;20026;-74
2022/03/06 00:40:01;;;;;;;26.63;18.83;;;;;;;11.49;36.49;103274.25;5013380;28;20423;-74
2022/03/06 00:42:26;;;;;;;36.80;21.50;;;;;;;11.50;36.41;103273.16;5013319;28;20026;-76
2022/03/06 00:44:53;;;;;;;29.30;18.95;;;;;;;11.47;36.35;103275.56;5013345;28;20022;-74
2022/03/06 00:47:19;;;;;;;24.52;17.48;;;;;;;11.42;36.42;103279.09;5013163;28;20021;-74
2022/03/06 00:49:45;;;;;;;27.73;19.10;;;;;;;11.36;36.51;103282.88;5013219;28;20026;-74
2022/03/06 00:52:12;;;;;;;32.97;19.98;;;;;;;11.33;36.54;103277.88;5013197;28;20032;-74
2022/03/06 00:54:38;;;;;;;24.85;18.25;;;;;;;11.33;36.43;103277.88;5011936;28;20029;-74
2022/03/06 00:57:04;;;;;;;29.50;15.05;;;;;;;11.32;36.74;103274.31;5013203;28;20026;-81
2022/03/06 00:59:34;;;;;;;25.33;16.67;;;;;;;11.36;36.81;103269.19;5013221;28;20029;-73
2022/03/06 01:02:00;;;;;;;;;;;;;;;11.29;36.70;103266.63;5013798;28;20465;-74
2022/03/06 01:04:26;;;;;;;24.98;16.08;;;;;;;11.41;36.50;103266.50;5013126;28;19919;-74
2022/03/06 01:06:52;;;;;;;28.50;16.50;;;;;;;11.39;36.51;103269.47;5012953;28;20022;-74
2022/03/06 01:09:18;;;;;;;25.77;17.25;;;;;;;11.33;36.58;103275.97;5012877;28;20121;-74
2022/03/06 01:11:43;;;;;;;31.90;18.85;;;;;;;11.29;36.64;103277.59;5012984;28;20616;-74
2022/03/06 01:14:09;;;;;;;24.70;17.98;;;;;;;11.26;36.62;103280.00;5012963;28;20083;-80
2022/03/06 01:16:35;;;;;;;23.40;15.10;;;;;;;11.29;36.55;103284.97;5012955;28;20026;-76
2022/03/06 01:19:00;;;;;;;24.65;14.80;;;;;;;11.26;36.74;103280.00;5012904;28;20100;-74
2022/03/06 01:21:26;;;;;;;20.42;13.52;;;;;;;11.26;36.78;103267.16;5012850;28;20029;-81
2022/03/06 01:23:52;;;;;;;20.88;14.32;;;;;;;11.29;36.80;103274.03;5012769;28;20026;-75
2022/03/06 01:26:20;;;;;;;21.23;14.48;;;;;;;11.27;36.71;103265.25;5012605;28;20029;-77
2022/03/06 01:28:46;;;;;;;22.50;13.38;;;;;;;11.29;36.64;103268.53;5012704;28;20111;-75
2022/03/06 01:31:12;;;;;;;23.80;14.40;;;;;;;11.28;36.78;103270.47;5012541;28;20088;-75
2022/03/06 01:33:40;;;;;;;21.90;14.50;;;;;;;11.26;36.80;103274.50;5012797;28;20033;-74
2022/03/06 01:36:06;;;;;;;25.83;16.35;;;;;;;11.21;36.62;103277.22;5012672;28;20026;-75
2022/03/06 01:38:32;;;;;;;23.38;15.82;;;;;;;11.18;36.82;103283.19;5012682;28;20105;-75
2022/03/06 01:40:57;;;;;;;19.05;14.77;;;;;;;11.07;36.96;103276.75;5012704;28;20635;-75
2022/03/06 01:43:23;;;;;;;23.60;15.32;;;;;;;10.99;36.92;103275.31;5012644;28;20048;-75
2022/03/06 01:45:49;;;;;;;19.73;12.88;;;;;;;10.97;36.99;103274.72;5012314;28;20480;-74
2022/03/06 01:48:14;;;;;;;19.13;12.27;;;;;;;10.98;37.03;103272.81;5012575;28;20068;-75
2022/03/06 01:50:42;;;;;;;16.25;12.13;;;;;;;11.05;36.90;103268.00;5012503;28;20362;-75
2022/03/06 01:53:10;;;;;;;19.08;12.45;;;;;;;11.09;36.82;103267.22;5012481;28;20554;-75
2022/03/06 01:55:36;;;;;;;20.13;12.82;;;;;;;11.10;36.89;103274.31;5012532;28;20029;-81
2022/03/06 01:58:05;;;;;;;22.15;13.40;;;;;;;11.09;36.94;103260.91;5012536;28;20057;-75
2022/03/06 02:00:41;;;;;;;17.55;11.88;;;;;;;11.05;37.09;103260.59;5012434;28;20114;-75
2022/03/06 02:03:08;;;;;;;24.92;14.98;;;;;;;11.03;37.19;103260.03;5011197;28;20109;-75
2022/03/06 02:05:33;;;;;;;18.17;14.00;;;;;;;11.03;36.95;103261.91;5012469;28;20030;-81
2022/03/06 02:07:59;;;;;;;23.48;15.35;;;;;;;11.02;36.89;103263.84;5012468;28;20026;-75
2022/03/06 02:10:25;;;;;;;23.02;13.85;;;;;;;10.98;37.01;103254.50;5012315;28;20030;-75
2022/03/06 02:12:50;;;;;;;19.00;12.45;;;;;;;10.96;37.09;103255.84;5012385;28;20472;-75
2022/03/06 02:15:17;;;;;;;19.95;13.55;;;;;;;10.95;37.07;103245.97;5010896;28;20037;-77
2022/03/06 02:17:44;;;;;;;20.52;12.85;;;;;;;10.96;37.08;103245.72;5012318;28;20037;-75
2022/03/06 02:20:16;;;;;;;20.52;12.23;;;;;;;10.98;37.07;103240.81;5012221;28;20034;-74
2022/03/06 02:22:44;;;;;;;20.67;13.60;;;;;;;10.96;37.02;103244.91;5011090;28;20030;-75
2022/03/06 02:25:16;;;;;;;21.38;12.88;;;;;;;10.93;37.11;103242.66;5010994;28;20069;-76
2022/03/06 02:27:42;;;;;;;20.13;14.38;;;;;;;10.90;37.14;103238.53;5012271;28;20030;-75
2022/03/06 02:30:11;;;;;;;20.45;13.13;;;;;;;10.89;37.14;103236.06;5011967;28;20053;-74
2022/03/06 02:32:38;;;;;;;20.63;13.07;;;;;;;10.84;37.10;103240.38;5012160;28;20026;-75
2022/03/06 02:35:05;;;;;;;20.67;13.50;;;;;;;10.78;37.08;103235.91;5011953;28;20036;-75
2022/03/06 02:37:31;;;;;;;19.73;13.48;;;;;;;10.80;37.26;103235.66;5013226;28;20061;-81
2022/03/06 02:40:00;;;;;;;21.17;13.82;;;;;;;10.77;37.17;103238.91;5015751;28;20091;-74
2022/03/06 02:42:30;;;;;;;20.55;12.85;;;;;;;10.76;37.28;103234.50;5015691;28;20412;-74
2022/03/06 02:44:58;;;;;;;21.50;13.77;;;;;;;10.79;37.14;103236.72;5014251;28;20552;-75
2022/03/06 02:47:24;;;;;;;20.08;12.93;;;;;;;10.82;37.16;103237.06;5014300;28;20621;-74
2022/03/06 02:49:51;;;;;;;22.70;14.50;;;;;;;10.80;37.16;103232.91;5015423;28;20029;-75
2022/03/06 02:52:17;;;;;;;18.02;13.15;;;;;;;10.71;37.25;103228.97;5015470;28;20384;-74
2022/03/06 02:54:43;;;;;;;23.08;13.27;;;;;;;10.65;37.26;103225.34;5015443;28;20030;-78
2022/03/06 02:57:09;;;;;;;18.23;12.33;;;;;;;10.61;37.16;103223.38;5015436;28;20022;-74
2022/03/06 02:59:34;;;;;;;20.27;13.57;;;;;;;10.62;37.12;103225.84;5015382;28;20129;-74
2022/03/06 03:02:00;;;;;;;20.05;13.77;;;;;;;10.60;37.27;103233.50;5015194;28;20033;-75
2022/03/06 03:04:26;;;;;;;18.13;13.30;;;;;;;10.56;37.15;103230.41;5015238;28;20166;-75
2022/03/06 03:06:52;;;;;;;18.23;13.88;;;;;;;10.52;37.24;103231.19;5015194;28;20083;-75
2022/03/06 03:09:21;;;;;;;22.45;15.93;;;;;;;10.48;37.27;103233.59;5013840;28;20531;-75
2022/03/06 03:11:48;;;;;;;22.03;15.43;;;;;;;10.48;37.30;103230.84;5015121;28;20116;-74
2022/03/06 03:14:15;;;;;;;23.45;13.18;;;;;;;10.48;37.26;103228.13;5015092;28;20346;-74
2022/03/06 03:16:41;;;;;;;24.67;15.95;;;;;;;10.49;37.25;103227.03;5015014;28;20030;-75
2022/03/06 03:19:07;;;;;;;22.08;14.57;;;;;;;10.45;37.10;103225.91;5014892;28;20034;-75
2022/03/06 03:21:33;;;;;;;19.25;13.80;;;;;;;10.45;37.17;103225.91;5014940;28;20029;-74
2022/03/06 03:23:59;;;;;;;20.10;14.15;;;;;;;10.46;37.01;103221.25;5014795;28;20030;-75
2022/03/06 03:26:25;;;;;;;17.70;13.30;;;;;;;10.43;37.15;103216.31;5013626;28;20029;-75
2022/03/06 03:28:51;;;;;;;14.75;11.43;;;;;;;10.38;37.17;103214.31;5014695;28;20084;-74
2022/03/06 03:31:16;;;;;;;22.65;13.30;;;;;;;10.40;37.38;103217.63;5004159;28;20046;-74
2022/03/06 03:33:42;;;;;;;19.92;12.52;;;;;;;10.32;37.43;103215.31;4995076;28;20028;-75
2022/03/06 03:36:08;;;;;;;23.10;13.17;;;;;;;10.29;37.38;103213.09;4995135;28;20030;-75
2022/03/06 03:38:33;;;;;;;23.33;13.93;;;;;;;10.25;37.27;103214.66;4995087;28;20022;-74
2022/03/06 03:41:01;;;;;;;17.67;12.63;;;;;;;10.26;37.50;103219.03;4995003;28;20477;-75
2022/03/06 03:43:27;;;;;;;24.83;13.63;;;;;;;10.24;37.55;103213.00;4994908;28;20022;-74
2022/03/06 03:45:53;;;;;;;19.60;12.65;;;;;;;10.34;37.36;103217.78;4994868;28;20046;-74
2022/03/06 03:48:18;;;;;;;19.30;13.02;;;;;;;10.27;37.46;103209.75;4994854;28;20028;-75
2022/03/06 03:50:44;;;;;;;16.55;11.93;;;;;;;10.22;37.48;103210.53;4994696;28;20036;-79
2022/03/06 03:53:10;;;;;;;19.10;14.02;;;;;;;10.21;37.47;103208.03;4994796;28;20026;-74
2022/03/06 03:55:36;;;;;;;22.60;14.50;;;;;;;10.19;37.39;103205.53;4994727;28;20034;-75
2022/03/06 03:58:02;;;;;;;18.63;13.50;;;;;;;10.15;37.46;103212.56;4994602;28;20076;-74
2022/03/06 04:00:27;;;;;;;20.48;13.55;;;;;;;10.10;37.42;103214.41;4994536;28;20026;-74
2022/03/06 04:02:53;;;;;;;20.10;12.60;;;;;;;10.09;37.66;103215.47;4994483;28;20499;-75
2022/03/06 04:05:18;;;;;;;19.08;12.55;;;;;;;10.08;37.52;103209.19;4994505;28;20105;-75
2022/03/06 04:07:44;;;;;;;19.70;12.03;;;;;;;10.06;37.61;103205.06;4994509;28;20023;-75
2022/03/06 04:10:11;;;;;;;18.63;12.23;;;;;;;10.07;37.60;103202.06;4994200;28;20033;-75
2022/03/06 04:12:36;;;;;;;22.30;12.40;;;;;;;10.08;37.65;103209.19;4994406;28;20037;-75
2022/03/06 04:15:02;;;;;;;21.50;12.18;;;;;;;10.09;37.64;103201.81;5025872;28;20027;-75
2022/03/06 04:17:28;;;;;;;21.58;12.38;;;;;;;10.09;37.74;103212.75;4994285;28;20030;-74
2022/03/06 04:19:54;;;;;;;20.40;11.20;;;;;;;10.08;37.77;103219.28;4994238;28;20022;-74
2022/03/06 04:22:19;;;;;;;21.10;12.90;;;;;;;10.10;37.64;103217.13;4994145;28;20035;-74
2022/03/06 04:24:45;;;;;;;22.50;12.63;;;;;;;10.09;37.31;103215.47;4994077;28;20398;-75
2022/03/06 04:27:10;;;;;;;20.40;11.38;;;;;;;10.08;37.59;103213.81;4994044;28;20358;-79
2022/03/06 04:29:36;;;;;;;16.48;11.05;;;;;;;10.04;37.80;103218.13;4993727;28;20453;-75
2022/03/06 04:32:03;;;;;;;16.92;10.73;;;;;;;10.05;37.71;103219.78;4993860;28;20110;-74
2022/03/06 04:34:28;;;;;;;15.00;10.73;;;;;;;10.08;37.82;103224.75;4993924;28;20048;-75
2022/03/06 04:36:54;;;;;;;19.00;12.13;;;;;;;10.08;37.66;103217.38;4993894;28;20513;-75
2022/03/06 04:39:20;;;;;;;18.45;11.07;;;;;;;10.04;37.75;103218.13;4993946;28;20023;-75
2022/03/06 04:41:45;;;;;;;20.23;11.77;;;;;;;10.00;37.80;103215.91;4993756;28;20033;-75
2022/03/06 04:44:12;;;;;;;18.73;10.38;;;;;;;10.06;37.54;103205.06;4993833;28;20034;-74
2022/03/06 04:46:38;;;;;;;16.47;11.63;;;;;;;10.03;37.60;103209.09;4993826;28;20023;-75
2022/03/06 04:49:04;;;;;;;17.33;10.63;;;;;;;9.97;37.75;103202.75;4993821;28;20575;-74
2022/03/06 04:51:29;;;;;;;18.90;10.90;;;;;;;9.94;37.69;103208.69;4993631;28;20559;-74
2022/03/06 04:53:55;;;;;;;13.82;9.90;;;;;;;9.97;37.77;103213.69;4993650;28;20026;-76
2022/03/06 04:56:21;;;;;;;16.25;10.45;;;;;;;9.99;37.94;103214.25;4993622;28;20388;-74
2022/03/06 04:58:46;;;;;;;16.13;11.80;;;;;;;10.04;37.76;103218.13;4993572;28;20033;-74
2022/03/06 05:01:12;;;;;;;19.42;11.70;;;;;;;10.04;37.78;103201.72;4993139;28;20018;-74
2022/03/06 05:03:37;;;;;;;16.25;11.63;;;;;;;10.13;37.58;103206.53;4993464;28;20037;-75
2022/03/06 05:06:03;;;;;;;16.40;11.27;;;;;;;10.04;37.61;103202.56;4993503;28;20489;-75
2022/03/06 05:08:29;;;;;;;15.63;9.38;;;;;;;10.04;37.50;103201.72;4993403;28;20022;-77
2022/03/06 05:10:55;;;;;;;15.43;10.52;;;;;;;10.03;37.87;103200.91;4993348;28;20473;-75
2022/03/06 05:13:22;;;;;;;18.85;12.30;;;;;;;9.97;37.74;103213.69;4993358;28;20431;-75
2022/03/06 05:15:48;;;;;;;18.02;11.68;;;;;;;9.98;37.49;103209.88;4993275;28;20034;-75
2022/03/06 05:18:14;;;;;;;22.27;11.07;;;;;;;9.94;37.94;103211.41;4993314;28;20029;-75
2022/03/06 05:20:40;;;;;;;20.33;11.82;;;;;;;9.97;38.03;103210.09;4993249;28;20029;-80
2022/03/06 05:23:05;;;;;;;17.42;11.65;;;;;;;9.89;37.83;103216.78;4993197;28;20481;-75
2022/03/06 05:25:31;;;;;;;17.85;11.70;;;;;;;9.89;37.76;103215.97;4993249;28;20026;-74
2022/03/06 05:27:57;;;;;;;14.77;11.05;;;;;;;9.92;37.98;103205.38;4993145;28;20026;-74
2022/03/06 05:30:22;;;;;;;15.32;11.05;;;;;;;9.93;37.81;103212.50;4992890;28;20054;-75
2022/03/06 05:32:48;;;;;;;17.27;11.23;;;;;;;9.92;37.84;103221.78;4993140;28;20022;-75
2022/03/06 05:35:14;;;;;;;13.20;10.75;;;;;;;9.91;37.74;103220.13;4993070;28;20092;-75
2022/03/06 05:37:40;;;;;;;16.33;10.70;;;;;;;9.85;37.98;103218.38;4993099;28;20022;-74
2022/03/06 05:40:06;;;;;;;17.53;10.40;;;;;;;9.86;37.89;103214.56;4993056;28;20030;-74
2022/03/06 05:42:32;;;;;;;17.92;10.75;;;;;;;9.90;37.76;103209.44;4993064;28;20030;-75
2022/03/06 05:44:57;;;;;;;17.08;10.35;;;;;;;9.90;37.93;103218.47;4993017;28;20038;-75
2022/03/06 05:47:23;;;;;;;15.50;10.65;;;;;;;9.89;37.85;103216.78;4992914;28;20022;-76
2022/03/06 05:49:48;;;;;;;17.37;10.67;;;;;;;9.89;38.22;103208.59;4992880;28;20497;-74
2022/03/06 05:52:14;;;;;;;15.02;9.27;;;;;;;9.82;38.34;103221.59;4992999;28;20045;-75
2022/03/06 05:54:40;;;;;;;15.32;9.98;;;;;;;9.78;38.06;103212.25;4992911;28;20030;-75
2022/03/06 05:57:06;;;;;;;17.35;10.25;;;;;;;9.73;38.14;103215.72;4992972;28;20030;-75
2022/03/06 05:59:32;;;;;;;15.20;10.55;;;;;;;9.66;38.14;103219.66;5007949;28;20023;-75
2022/03/06 06:01:58;;;;;;;15.98;9.60;;;;;;;9.64;38.13;103213.66;5007830;28;20030;-80
2022/03/06 06:04:24;;;;;;;15.93;10.70;;;;;;;9.51;38.48;103206.59;4992859;28;20089;-75
2022/03/06 06:06:50;;;;;;;13.80;9.93;;;;;;;9.56;38.18;103217.59;4992813;28;20037;-74
2022/03/06 06:09:15;;;;;;;20.53;11.07;;;;;;;9.61;38.32;103214.97;4992713;28;20058;-74
2022/03/06 06:11:41;;;;;;;15.18;9.40;;;;;;;9.61;38.18;103217.69;4992745;28;20125;-75
2022/03/06 06:14:07;;;;;;;14.97;9.17;;;;;;;9.68;38.11;103217.56;4996613;28;20112;-74
2022/03/06 06:16:33;;;;;;;14.13;8.75;;;;;;;9.71;38.33;103217.88;4996568;28;20030;-74
2022/03/06 06:18:58;;;;;;;13.13;8.77;;;;;;;9.78;38.47;103212.25;4996458;28;20508;-74
2022/03/06 06:21:24;;;;;;;19.10;10.00;;;;;;;9.77;38.18;103213.34;4996516;28;20065;-75
2022/03/06 06:23:50;;;;;;;18.20;11.10;;;;;;;9.77;38.23;103207.88;4996365;28;20041;-75
2022/03/06 06:26:16;;;;;;;14.53;9.27;;;;;;;9.77;38.15;103213.34;4996397;28;20445;-75
2022/03/06 06:28:41;;;;;;;17.03;9.80;;;;;;;9.75;38.29;103210.03;4996210;28;20026;-75
2022/03/06 06:31:08;;;;;;;13.23;9.33;;;;;;;9.69;38.49;103214.56;4996081;28;20516;-75
2022/03/06 06:33:34;;;;;;;14.30;9.02;;;;;;;9.77;38.10;103223.44;4996270;28;20081;-74
2022/03/06 06:36:00;;;;;;;14.20;9.30;;;;;;;9.82;38.47;103221.59;4996138;28;20030;-74
2022/03/06 06:38:27;;;;;;;20.73;8.90;;;;;;;9.82;38.41;103224.31;4996098;28;20470;-75
2022/03/06 06:40:53;;;;;;;14.87;8.10;;;;;;;9.81;38.53;103230.03;4996069;28;20022;-75
2022/03/06 06:43:20;;;;;;;13.43;6.43;;;;;;;9.83;38.80;103214.25;4996088;28;20030;-74
2022/03/06 06:45:47;;;;;;;14.47;4.70;;;;;;;9.99;39.40;103214.25;4996048;28;20019;-80
2022/03/06 06:48:13;;;;;;;12.15;3.45;;;;;;;10.32;39.90;103212.59;4994656;28;20168;-74
2022/03/06 06:50:38;;;;;;;5.75;2.10;;;;;;;10.68;40.72;103218.56;4995841;28;20113;-75
2022/03/06 06:53:04;;;;;;;9.77;1.92;;;;;;;11.02;41.26;103222.78;4995886;28;20148;-75
2022/03/06 06:55:30;;;;;;;6.78;2.03;;;;;;;11.40;40.78;103224.59;4995874;28;20029;-74
2022/03/06 06:57:56;;;;;;;7.65;2.03;;;;;;;11.70;41.25;103225.16;4995835;28;20041;-76
2022/03/06 07:00:22;;;;;;;5.55;1.70;;;;;;;11.84;41.83;103227.22;4995751;28;20034;-74
2022/03/06 07:02:47;;;;;;;10.68;2.40;;;;;;;12.00;42.13;103224.59;4995722;28;20039;-75
2022/03/06 07:05:14;;;;;;;6.25;1.35;;;;;;;12.12;42.22;103212.38;4995790;28;20253;-81
2022/03/06 07:07:40;;;;;;;11.07;1.98;;;;;;;12.29;42.12;103216.88;4995581;28;20038;-75
2022/03/06 07:10:06;;;;;;;12.35;2.13;;;;;;;12.44;42.23;103219.72;4995557;28;20037;-75
2022/03/06 07:12:48;;;;;;;9.02;1.98;;;;;;;12.50;42.19;103214.00;4995557;28;20034;-75
2022/03/06 07:15:15;;;;;;;7.40;1.92;;;;;;;12.75;41.64;103221.50;4995486;28;20022;-77
2022/03/06 07:17:41;;;;;;;8.80;2.45;;;;;;;12.86;41.43;103225.16;4995457;28;20026;-75
2022/03/06 07:20:08;;;;;;;13.77;2.15;;;;;;;12.97;41.35;103234.22;4995400;28;20481;-75
2022/03/06 07:22:34;;;;;;;7.40;1.98;;;;;;;12.99;41.64;103234.78;4995236;28;20026;-75
2022/03/06 07:24:59;;;;;;;7.13;1.85;;;;;;;13.16;41.47;103229.09;5010149;28;20121;-75
2022/03/06 07:27:25;;;;;;;9.95;1.83;;;;;;;13.09;41.69;103225.78;5010325;28;20121;-75
2022/03/06 07:29:51;;;;;;;7.70;2.47;;;;;;;13.15;41.88;103230.16;4994969;28;20519;-75
2022/03/06 07:32:16;;;;;;;12.82;4.28;;;;;;;13.14;42.29;103220.28;5010148;28;20085;-75
2022/03/06 07:34:42;;;;;;;7.45;2.20;;;;;;;13.24;42.19;103225.84;4993874;28;20030;-74
2022/03/06 07:37:08;;;;;;;10.45;2.35;;;;;;;13.43;42.03;103232.47;4995103;28;20031;-75
2022/03/06 07:39:33;;;;;;;10.38;2.72;;;;;;;13.41;42.03;103231.09;4995061;28;20037;-75
2022/03/06 07:41:59;;;;;;;12.65;2.92;;;;;;;13.89;41.25;103230.59;4994911;28;20089;-77
2022/03/06 07:44:25;;;;;;;5.80;1.60;;;;;;;13.59;42.07;103227.81;4995032;28;20030;-74
2022/03/06 07:46:50;;;;;;;11.13;1.92;;;;;;;13.61;42.22;103233.88;4994820;28;20030;-74
2022/03/06 07:49:16;;;;;;;6.00;1.73;;;;;;;13.70;42.35;103232.25;4994877;28;20054;-75
2022/03/06 07:51:42;;;;;;;9.23;2.22;;;;;;;13.72;42.69;103227.28;4994728;28;20117;-81
2022/03/06 07:54:13;;;;;;;7.18;2.00;;;;;;;13.88;42.23;103233.63;4994893;28;20100;-77
2022/03/06 07:56:39;;;;;;;7.43;2.85;;;;;;;13.89;42.36;103230.59;4994847;28;20118;-89
2022/03/06 07:59:04;;;;;;;11.93;2.63;;;;;;;13.99;42.09;103228.97;4995202;28;20105;-85
2022/03/06 08:01:30;;;;;;;12.93;4.03;;;;;;;13.94;41.93;103231.69;4993753;28;20121;-75
2022/03/06 08:03:55;;;;;;;6.53;2.13;;;;;;;14.18;41.70;103237.44;5009899;28;20026;-76
2022/03/06 08:06:23;;;;;;;2.70;1.60;;;;;;;14.27;41.58;103236.59;4994712;28;20026;-76
2022/03/06 08:08:49;;;;;;;17.42;3.50;;;;;;;14.33;41.57;103240.19;4994506;28;20018;-75
2022/03/06 08:11:14;;;;;;;7.82;2.17;;;;;;;14.41;41.66;103236.84;4994384;28;20043;-75
2022/03/06 08:13:40;;;;;;;10.45;3.97;;;;;;;14.49;41.38;103236.31;5009650;28;20022;-75
2022/03/06 08:16:06;;;;;;;11.73;3.83;;;;;;;14.52;41.29;103240.47;4994524;28;20042;-86
2022/03/06 08:18:32;;;;;;;14.43;2.63;;;;;;;14.49;41.16;103233.56;4994593;28;20227;-75
2022/03/06 08:20:58;;;;;;;8.48;1.75;;;;;;;14.59;40.91;103247.31;4994667;28;20045;-75
2022/03/06 08:23:23;;;;;;;14.93;3.17;;;;;;;14.53;40.92;103234.69;4995076;28;20027;-86
2022/03/06 08:25:49;;;;;;;6.03;1.65;;;;;;;14.68;40.41;103242.06;5010886;28;20035;-75
2022/03/06 08:28:14;;;;;;;7.70;2.47;;;;;;;14.80;40.14;103244.47;5013679;28;20077;-75
2022/03/06 08:30:40;;;;;;;8.73;2.38;;;;;;;14.89;39.94;103240.06;5014280;28;20050;-75
2022/03/06 08:33:05;;;;;;;8.00;1.83;;;;;;;15.15;39.65;103243.50;5013884;28;20030;-88
2022/03/06 08:35:31;;;;;;;7.82;2.10;;;;;;;15.22;39.71;103236.59;5013486;28;20034;-82
2022/03/06 08:37:57;;;;;;;11.43;1.90;;;;;;;15.12;39.24;103239.41;5012458;28;20121;-84
2022/03/06 08:40:23;;;;;;;6.22;1.90;;;;;;;15.17;39.38;103241.28;5012345;28;20168;-76
2022/03/06 08:42:49;;;;;;;9.70;1.75;;;;;;;15.21;38.83;103248.72;5012249;28;20121;-75
2022/03/06 08:45:15;;;;;;;13.38;2.20;;;;;;;15.36;38.43;103245.06;5013410;28;20034;-82
2022/03/06 08:47:41;;;;;;;5.68;1.85;;;;;;;15.48;38.27;103233.66;5012078;28;20053;-77
2022/03/06 08:50:07;;;;;;;5.57;1.42;;;;;;;15.59;38.18;103240.75;5013345;28;20357;-75
2022/03/06 08:52:33;;;;;;;7.50;2.28;;;;;;;15.75;37.96;103244.25;5013237;28;20036;-81
2022/03/06 08:54:58;;;;;;;8.70;2.10;;;;;;;15.43;37.92;103240.03;5012896;28;20029;-76
2022/03/06 08:57:24;;;;;;;5.07;1.38;;;;;;;15.60;37.38;103236.91;5013953;28;20045;-79
2022/03/06 08:59:51;;;;;;;9.35;1.52;;;;;;;15.74;37.34;103245.38;5012039;28;20030;-76
2022/03/06 09:02:16;;;;;;;5.57;2.08;;;;;;;15.72;37.38;103245.66;5013202;28;20072;-77
2022/03/06 09:04:42;;;;;;;6.05;2.00;;;;;;;15.81;37.42;103249.44;5011560;28;20026;-76
2022/03/06 09:07:08;;;;;;;9.30;2.00;;;;;;;15.89;37.30;103256.28;5013239;28;20609;-83
2022/03/06 09:09:33;;;;;;;6.15;2.13;;;;;;;15.99;36.98;103245.16;5011813;28;20038;-76
2022/03/06 09:11:59;;;;;;;9.45;1.60;;;;;;;16.02;36.47;103250.13;5012750;28;20026;-77
2022/03/06 09:14:25;;;;;;;6.43;1.80;;;;;;;16.07;35.94;103244.53;5012732;28;20030;-83
2022/03/06 09:16:51;;;;;;;12.95;1.90;;;;;;;16.13;35.88;103245.31;5012582;28;20385;-76
2022/03/06 09:19:16;;;;;;;11.90;3.35;;;;;;;16.13;35.67;103245.31;5012787;28;20022;-76
2022/03/06 09:21:43;;;;;;;13.90;2.22;;;;;;;16.28;35.58;103252.63;5011622;28;20061;-76
2022/03/06 09:24:10;;;;;;;6.10;1.77;;;;;;;16.38;35.39;103244.22;5012962;28;20396;-77
2022/03/06 09:26:36;;;;;;;8.68;2.05;;;;;;;16.24;35.09;103251.53;5012602;28;20022;-88
2022/03/06 09:29:04;;;;;;;4.15;1.52;;;;;;;16.00;35.54;103246.81;5013607;28;20047;-88
2022/03/06 09:31:30;;;;;;;9.88;1.58;;;;;;;16.23;35.52;103252.66;5015517;28;20401;-88
2022/03/06 09:33:56;;;;;;;8.55;1.80;;;;;;;16.07;35.78;103247.28;5010398;28;20030;-77
2022/03/06 09:36:22;;;;;;;12.25;2.25;;;;;;;16.22;35.21;103245.50;5012545;28;20026;-77
2022/03/06 09:38:47;;;;;;;17.30;3.65;;;;;;;16.13;35.57;103250.00;5012503;28;20060;-85
2022/03/06 09:41:17;;;;;;;12.70;2.30;;;;;;;16.16;35.38;103241.97;5012425;28;20054;-77
2022/03/06 09:43:44;;;;;;;13.00;2.72;;;;;;;16.53;35.17;103251.53;5012949;28;20018;-77
2022/03/06 09:46:09;;;;;;;13.07;8.35;;;;;;;16.67;35.06;103249.72;5012837;28;20037;-77
2022/03/06 09:48:36;;;;;;;39.03;25.20;;;;;;;16.74;34.84;103252.16;5017059;28;20385;-87
2022/03/06 09:51:04;;;;;;;15.73;7.95;;;;;;;16.87;34.63;103248.69;5016689;28;20105;-78
2022/03/06 09:53:30;;;;;;;24.40;9.45;;;;;;;16.87;34.40;103251.47;5016074;28;20029;-85
2022/03/06 09:55:56;;;;;;;46.33;26.77;;;;;;;16.94;34.48;103248.34;5016445;28;20477;-76
2022/03/06 09:58:22;;;;;;;52.42;27.85;;;;;;;17.13;33.95;103252.75;5026673;28;20026;-77
2022/03/06 10:00:47;;;;;;;25.92;15.10;;;;;;;17.14;34.03;103265.44;5028954;28;20026;-77
2022/03/06 10:03:18;;;;;;;36.53;21.80;;;;;;;17.14;33.66;103261.88;5015761;28;20072;-87
2022/03/06 10:05:44;;;;;;;30.48;9.45;;;;;;;17.31;33.79;103253.91;5016341;28;20026;-76
2022/03/06 10:08:21;;;;;;;21.27;7.35;;;;;;;17.28;33.63;103253.69;5015299;28;20499;-77
2022/03/06 10:10:50;;;;;;;16.25;3.92;;;;;;;17.56;33.41;103246.38;5016598;28;20058;-78
2022/03/06 10:13:23;;;;;;;17.13;9.17;;;;;;;17.42;33.34;103244.34;5016231;28;20362;-77
2022/03/06 10:16:04;;;;;;;17.63;6.10;;;;;;;17.27;33.00;103239.03;5016201;28;20025;-77
2022/03/06 10:18:32;;;;;;;10.00;5.15;;;;;;;17.38;33.15;103242.47;5009127;28;20026;-76
2022/03/06 10:21:12;;;;;;;14.27;4.25;;;;;;;17.32;33.18;103243.69;5016207;28;20115;-86
2022/03/06 10:23:38;;;;;;;15.48;4.82;;;;;;;17.50;33.21;103245.63;5017071;28;20026;-89
2022/03/06 10:26:09;;;;;;;16.23;4.00;;;;;;;17.50;32.94;103242.03;5015277;28;20034;-77
2022/03/06 10:28:44;;;;;;;11.88;3.55;;;;;;;17.59;32.20;103241.03;5013849;28;20028;-81
2022/03/06 10:31:10;;;;;;;12.70;3.92;;;;;;;17.58;32.17;103236.63;5014989;28;20512;-81
2022/03/06 10:33:35;;;;;;;18.98;4.88;;;;;;;17.64;32.20;103229.09;5016094;28;20028;-77
2022/03/06 10:36:02;;;;;;;11.00;2.35;;;;;;;17.59;31.93;103226.41;5014602;28;20049;-78
2022/03/06 10:38:32;;;;;;;15.90;3.03;;;;;;;17.55;31.35;103226.19;5015502;28;20503;-76
2022/03/06 10:41:00;;;;;;;18.33;5.18;;;;;;;17.50;31.93;103222.69;5016910;28;20030;-77
2022/03/06 10:43:33;;;;;;;16.73;5.10;;;;;;;17.29;32.09;103227.69;5018135;28;20032;-77
2022/03/06 10:46:11;;;;;;;16.45;3.20;;;;;;;17.38;31.74;103223.13;5019013;28;20036;-77
2022/03/06 10:48:39;;;;;;;9.25;1.75;;;;;;;17.30;31.56;103215.50;5019305;28;20021;-76
2022/03/06 10:51:08;;;;;;;9.30;2.47;;;;;;;17.30;31.86;103223.78;5017671;28;20044;-80
2022/03/06 10:53:33;;;;;;;11.13;1.77;;;;;;;17.30;32.07;103221.03;5017847;28;20111;-76
2022/03/06 10:56:11;;;;;;;13.48;3.22;;;;;;;17.34;31.98;103219.31;5017821;28;20559;-77
2022/03/06 10:58:40;;;;;;;10.45;2.45;;;;;;;17.56;31.85;103214.00;5017478;28;20278;-78
2022/03/06 11:01:06;;;;;;;4.28;1.50;;;;;;;17.50;31.99;103215.22;5018198;28;20026;-77
2022/03/06 11:03:34;;;;;;;10.43;2.13;;;;;;;17.71;32.08;103212.97;5016782;28;20040;-77
2022/03/06 11:06:01;;;;;;;8.60;2.30;;;;;;;17.40;32.31;103213.44;5018921;28;20551;-78
2022/03/06 11:08:27;;;;;;;28.92;4.40;;;;;;;17.65;31.85;103212.19;5016679;28;20022;-77
2022/03/06 11:10:53;;;;;;;7.35;1.80;;;;;;;17.55;31.71;103204.06;5021494;28;20086;-76
2022/03/06 11:13:19;;;;;;;14.73;3.00;;;;;;;17.78;31.48;103207.06;5019363;28;20773;-77